CheckWX is a tool to help pilots better visualize weather data.  It is not intended as a substitute for an official pre-flight weather briefing.

18:13:15 UTC

KCEW METAR
Bob Sikes Airport
Crestview, Florida, USA
Current

20 mins ago

KCEW 081753Z AUTO 12007G14KT 10SM OVC041 21/14 A3015 RMK AO2 SLP207 6//// T02110139 10211 20128 58019
Observed
Dec-8 @ 17:53 UTC
Wind
  • 120° at 7 KTS
  • Gusting to 14 KTS
Visibility
10 SM
Flight Rules
VFR
Cloud Levels
  • Overcast at 4,100' AGL
Temperature
21°C / 70°F
Dewpoint
14°C / 57°F
Humidity
64%
Altimeter
30.15" Hg
Pressure
1021.02 hPa
Previous

1 hour ago

KCEW 081653Z AUTO 12006KT 10SM SCT040 BKN049 OVC070 19/13 A3020 RMK AO2 SLP224 T01940133
Observed
Dec-8 @ 16:53 UTC
Wind
  • 120° at 6 KTS
Visibility
10 SM
Flight Rules
VFR
Cloud Levels
  • Scattered at 4,000' AGL
  • Broken at 4,900' AGL
  • Overcast at 7,000' AGL
Temperature
19°C / 66°F
Dewpoint
13°C / 55°F
Humidity
68%
Altimeter
30.2" Hg
Pressure
1022.72 hPa
Previous

2 hours ago

KCEW 081553Z AUTO 10007KT 10SM OVC070 18/13 A3020 RMK AO2 SLP226 T01830128
Observed
Dec-8 @ 15:53 UTC
Wind
  • 100° at 7 KTS
Visibility
10 SM
Flight Rules
VFR
Cloud Levels
  • Overcast at 7,000' AGL
Temperature
18°C / 64°F
Dewpoint
13°C / 55°F
Humidity
73%
Altimeter
30.2" Hg
Pressure
1022.72 hPa